International Virtual Aviation Organisation

Russian Federation and Kazakhstan MCD

 
USPP 281000Z 10004MPS CAVOK M12/M14 Q1039 R03/090060 NOSIG RMK QFE768
QNH:(hPa/inHg/mmHg)1039 / 30.68 / 779
QFE:(hPa/inHg/mmHg)1024 / 30.24 / 768
Temperature-12
Dew Point-14
Visibility> 10000
WeatherCAVOK
Cloud Cover
Transition Height1200 m./4400 ft.
Transition LevelFL50
SQUAWK